createdAt,value
2023-01-27T00:00:35.824Z,17.20
2023-01-27T00:03:06.444Z,16.83
2023-01-27T00:05:36.865Z,19.83
2023-01-27T00:08:07.401Z,19.03
2023-01-27T00:10:40.802Z,15.80
2023-01-27T00:13:27.223Z,16.60
2023-01-27T00:15:57.804Z,14.63
2023-01-27T00:18:28.448Z,16.87
2023-01-27T00:21:18.180Z,15.20
2023-01-27T00:24:06.635Z,15.83
2023-01-27T00:26:37.042Z,16.50
2023-01-27T00:32:01.491Z,16.43
2023-01-27T00:34:32.097Z,16.27
2023-01-27T00:37:02.795Z,16.37
2023-01-27T00:39:33.371Z,17.47
2023-01-27T00:42:06.477Z,20.00
2023-01-27T00:44:37.068Z,14.00
2023-01-27T00:47:07.968Z,15.93
2023-01-27T00:49:38.761Z,16.07
2023-01-27T00:52:10.761Z,16.93
2023-01-27T00:54:41.628Z,16.30
2023-01-27T00:57:12.155Z,17.07
2023-01-27T00:59:42.636Z,16.17
2023-01-27T01:02:13.331Z,17.20
2023-01-27T01:04:44.076Z,19.07
2023-01-27T01:07:16.781Z,19.70
2023-01-27T01:09:47.434Z,18.13
2023-01-27T01:12:18.229Z,17.60
2023-01-27T01:14:48.654Z,17.10
2023-01-27T01:17:19.112Z,18.90
2023-01-27T01:19:49.887Z,21.20
2023-01-27T01:22:21.862Z,14.73
2023-01-27T01:24:52.411Z,18.07
2023-01-27T01:27:22.888Z,18.40
2023-01-27T01:29:53.471Z,18.43
2023-01-27T01:32:23.995Z,17.43
2023-01-27T01:34:54.392Z,19.27
2023-01-27T01:37:25.241Z,16.40
2023-01-27T01:39:55.611Z,18.33
2023-01-27T01:42:27.397Z,19.67
2023-01-27T01:45:36.719Z,21.00
2023-01-27T01:48:25.201Z,21.70
2023-01-27T01:51:09.291Z,17.80
2023-01-27T01:53:42.776Z,18.77
2023-01-27T01:56:16.286Z,20.30
2023-01-27T01:58:48.194Z,21.07
2023-01-27T02:01:19.483Z,19.10
2023-01-27T02:03:53.052Z,19.87
2023-01-27T02:06:23.869Z,18.07
2023-01-27T02:08:55.902Z,20.67
2023-01-27T02:11:28.167Z,20.93
2023-01-27T02:14:02.071Z,19.17
2023-01-27T02:16:33.835Z,18.90
2023-01-27T02:19:06.148Z,20.40
2023-01-27T02:21:38.384Z,20.27
2023-01-27T02:24:12.049Z,17.80
2023-01-27T02:26:45.191Z,18.73
2023-01-27T02:29:17.112Z,21.00
2023-01-27T02:31:47.664Z,20.33
2023-01-27T02:34:22.906Z,17.00
2023-01-27T02:36:57.585Z,17.87
2023-01-27T02:39:33.793Z,15.30
2023-01-27T02:42:07.115Z,18.37
2023-01-27T02:44:39.451Z,15.40
2023-01-27T02:47:09.944Z,17.00
2023-01-27T02:49:40.335Z,15.47
2023-01-27T02:52:10.697Z,17.10
2023-01-27T02:54:41.276Z,13.17
2023-01-27T02:57:14.124Z,14.50
2023-01-27T02:59:43.867Z,16.67
2023-01-27T03:02:15.952Z,14.63
2023-01-27T03:04:47.157Z,18.53
2023-01-27T03:07:17.692Z,18.37
2023-01-27T03:09:48.652Z,14.43
2023-01-27T03:12:20.825Z,16.43
2023-01-27T03:15:11.953Z,14.93
2023-01-27T03:18:00.571Z,15.83
2023-01-27T03:20:31.376Z,18.03
2023-01-27T03:23:02.586Z,17.27
2023-01-27T03:25:33.456Z,18.73
2023-01-27T03:28:06.594Z,20.13
2023-01-27T03:30:38.120Z,18.17
2023-01-27T03:33:10.829Z,18.63
2023-01-27T03:35:42.949Z,14.60
2023-01-27T03:38:33.167Z,16.10
2023-01-27T03:41:24.898Z,18.13
2023-01-27T03:44:14.466Z,15.30
2023-01-27T03:46:45.260Z,16.87
2023-01-27T03:49:15.819Z,15.30
2023-01-27T03:51:46.445Z,15.70
2023-01-27T03:54:17.320Z,15.17
2023-01-27T03:56:51.337Z,14.10
2023-01-27T03:59:21.943Z,15.07
2023-01-27T04:01:52.303Z,12.83
2023-01-27T04:04:40.809Z,13.27
2023-01-27T04:07:11.435Z,12.13
2023-01-27T04:09:42.646Z,12.83
2023-01-27T04:12:13.074Z,13.53
2023-01-27T04:14:43.851Z,14.73
2023-01-27T04:17:19.533Z,15.80
2023-01-27T04:19:53.037Z,16.17
2023-01-27T04:22:23.612Z,18.83
2023-01-27T04:24:54.037Z,16.63
2023-01-27T04:27:24.563Z,18.80
2023-01-27T04:29:54.950Z,17.43
2023-01-27T04:32:26.967Z,17.93
2023-01-27T04:34:57.524Z,15.73
2023-01-27T04:37:28.317Z,14.77
2023-01-27T04:39:58.843Z,15.50
2023-01-27T04:42:30.774Z,14.40
2023-01-27T04:45:01.341Z,16.30
2023-01-27T04:47:31.820Z,13.33
2023-01-27T04:50:02.238Z,14.23
2023-01-27T04:52:34.479Z,16.40
2023-01-27T04:55:05.246Z,14.40
2023-01-27T04:57:38.904Z,9.83
2023-01-27T05:00:11.538Z,14.67
2023-01-27T05:02:43.314Z,13.50
2023-01-27T05:05:14.140Z,11.37
2023-01-27T05:07:45.928Z,15.67
2023-01-27T05:10:18.459Z,17.23
2023-01-27T05:12:49.033Z,13.93
2023-01-27T05:15:19.460Z,14.90
2023-01-27T05:17:50.707Z,13.10
2023-01-27T05:20:21.237Z,13.77
2023-01-27T05:22:54.390Z,13.13
2023-01-27T05:25:25.162Z,15.53
2023-01-27T05:27:55.633Z,13.37
2023-01-27T05:30:27.885Z,15.23
2023-01-27T05:32:58.813Z,14.60
2023-01-27T05:35:31.016Z,14.23
2023-01-27T05:38:01.817Z,15.73
2023-01-27T05:40:35.252Z,14.73
2023-01-27T05:43:05.842Z,15.00
2023-01-27T05:45:36.286Z,16.30
2023-01-27T05:48:08.257Z,16.20
2023-01-27T05:50:38.985Z,15.63
2023-01-27T05:53:10.771Z,16.43
2023-01-27T05:55:44.422Z,14.60
2023-01-27T05:58:14.847Z,16.43
2023-01-27T06:00:46.457Z,15.77
2023-01-27T06:03:18.465Z,17.53
2023-01-27T06:05:56.902Z,16.63
2023-01-27T06:08:29.329Z,16.97
2023-01-27T06:11:00.408Z,16.47
2023-01-27T06:13:32.746Z,17.17
2023-01-27T06:16:09.588Z,16.20
2023-01-27T06:18:40.830Z,16.07
2023-01-27T06:21:14.196Z,16.27
2023-01-27T06:23:45.113Z,17.17
2023-01-27T06:26:18.461Z,16.70
2023-01-27T06:28:50.348Z,17.20
2023-01-27T06:31:23.180Z,15.63
2023-01-27T06:33:54.098Z,19.10
2023-01-27T06:36:24.942Z,13.27
2023-01-27T06:38:55.257Z,15.90
2023-01-27T06:41:25.876Z,14.73
2023-01-27T06:43:56.483Z,16.70
2023-01-27T06:46:26.944Z,15.23
2023-01-27T06:48:57.471Z,16.93
2023-01-27T06:51:28.097Z,13.93
2023-01-27T06:53:58.615Z,13.97
2023-01-27T06:56:30.712Z,16.27
2023-01-27T06:59:01.192Z,17.10
2023-01-27T07:01:31.707Z,17.27
2023-01-27T07:04:02.239Z,14.60
2023-01-27T07:06:34.464Z,16.70
2023-01-27T07:09:05.108Z,18.23
2023-01-27T07:11:35.722Z,19.53
2023-01-27T07:14:06.051Z,19.10
2023-01-27T07:16:36.590Z,19.03
2023-01-27T07:19:07.490Z,14.67
2023-01-27T07:21:38.900Z,22.07
2023-01-27T07:24:09.593Z,20.67
2023-01-27T07:26:41.756Z,20.07
2023-01-27T07:29:12.240Z,21.03
2023-01-27T07:31:42.926Z,28.87
2023-01-27T07:34:13.507Z,19.77
2023-01-27T07:36:44.109Z,22.83
2023-01-27T07:39:14.597Z,22.07
2023-01-27T07:41:45.335Z,20.13
2023-01-27T07:44:16.023Z,17.13
2023-01-27T07:46:48.871Z,17.60
2023-01-27T07:49:21.634Z,22.30
2023-01-27T07:51:52.609Z,16.73
2023-01-27T07:54:25.314Z,18.57
2023-01-27T07:56:55.906Z,21.03
2023-01-27T07:59:28.115Z,21.90
2023-01-27T08:02:01.056Z,18.43
2023-01-27T08:04:43.420Z,16.03
2023-01-27T08:07:04.724Z,20.70
2023-01-27T08:09:36.570Z,18.13
2023-01-27T08:12:10.073Z,21.67
2023-01-27T08:14:40.693Z,16.77
2023-01-27T08:17:12.972Z,16.60
2023-01-27T08:19:44.023Z,17.93
2023-01-27T08:22:18.634Z,15.10
2023-01-27T08:24:52.107Z,16.80
2023-01-27T08:27:25.675Z,16.00
2023-01-27T08:29:57.438Z,20.57
2023-01-27T08:32:31.117Z,16.63
2023-01-27T08:35:06.610Z,16.93
2023-01-27T08:37:37.445Z,14.50
2023-01-27T08:40:10.991Z,14.83
2023-01-27T08:42:42.263Z,14.17
2023-01-27T08:45:15.675Z,15.40
2023-01-27T08:47:50.185Z,14.63
2023-01-27T08:50:23.474Z,11.07
2023-01-27T08:52:54.309Z,13.30
2023-01-27T08:55:25.375Z,12.93
2023-01-27T08:57:56.365Z,14.63
2023-01-27T09:00:27.485Z,12.60
2023-01-27T09:02:57.939Z,13.30
2023-01-27T09:05:30.897Z,14.13
2023-01-27T09:08:02.039Z,13.10
2023-01-27T09:10:34.293Z,14.60
2023-01-27T09:13:05.305Z,12.20
2023-01-27T09:15:37.466Z,10.00
2023-01-27T09:18:08.305Z,10.20
2023-01-27T09:20:39.475Z,9.50
2023-01-27T09:23:09.961Z,10.70
2023-01-27T09:25:41.941Z,9.77
2023-01-27T09:28:14.974Z,7.77
2023-01-27T09:30:50.404Z,9.10
2023-01-27T09:33:20.932Z,10.57
2023-01-27T09:35:54.553Z,11.45
2023-01-27T09:38:27.656Z,8.70
2023-01-27T09:41:01.159Z,10.70
2023-01-27T09:43:57.475Z,10.60
2023-01-27T09:47:00.945Z,11.37
2023-01-27T09:49:40.596Z,11.80
2023-01-27T09:52:47.650Z,9.20
2023-01-27T09:55:22.194Z,12.27
2023-01-27T09:58:07.366Z,9.40
2023-01-27T10:00:43.591Z,10.97
2023-01-27T10:03:25.183Z,10.60
2023-01-27T10:06:01.779Z,12.73
2023-01-27T10:08:57.885Z,11.87
2023-01-27T10:11:49.012Z,10.67
2023-01-27T10:14:39.004Z,9.63
2023-01-27T10:17:33.423Z,10.40
2023-01-27T10:20:10.914Z,11.27
2023-01-27T10:23:01.246Z,10.60
2023-01-27T10:26:01.297Z,10.93
2023-01-27T10:28:35.460Z,7.43
2023-01-27T10:31:25.755Z,8.20
2023-01-27T10:34:01.675Z,9.40
2023-01-27T10:36:52.035Z,8.43
2023-01-27T10:39:39.340Z,8.20
2023-01-27T10:42:22.341Z,8.87
2023-01-27T10:45:23.579Z,7.43
2023-01-27T10:48:06.362Z,10.80
2023-01-27T10:50:43.497Z,9.73
2023-01-27T10:53:17.352Z,9.57
2023-01-27T10:56:09.141Z,10.50
2023-01-27T10:59:00.812Z,7.30
2023-01-27T11:01:37.382Z,9.53
2023-01-27T11:04:11.908Z,6.33
2023-01-27T11:06:45.085Z,9.30
2023-01-27T11:09:30.710Z,7.97
2023-01-27T11:12:10.324Z,8.57
2023-01-27T11:14:52.945Z,7.50
2023-01-27T11:17:33.753Z,10.00
2023-01-27T11:20:07.627Z,12.17
2023-01-27T11:22:46.985Z,6.80
2023-01-27T11:25:29.462Z,9.17
2023-01-27T11:28:22.890Z,8.00
2023-01-27T11:31:11.616Z,7.17
2023-01-27T11:34:00.786Z,6.50
2023-01-27T11:36:31.814Z,8.60
2023-01-27T11:39:04.507Z,7.10
2023-01-27T11:41:41.138Z,8.73
2023-01-27T11:44:19.759Z,7.57
2023-01-27T11:46:52.592Z,7.53
2023-01-27T11:49:33.504Z,10.60
2023-01-27T11:52:16.866Z,7.50
2023-01-27T11:54:57.717Z,10.70
2023-01-27T11:57:28.374Z,12.10
2023-01-27T12:00:02.770Z,7.90
2023-01-27T12:02:54.913Z,7.60
2023-01-27T12:05:37.791Z,7.17
2023-01-27T12:08:09.798Z,8.67
2023-01-27T12:10:42.975Z,10.20
2023-01-27T12:13:22.452Z,9.00
2023-01-27T12:16:02.106Z,10.77
2023-01-27T12:18:39.058Z,6.60
2023-01-27T12:21:10.601Z,8.53
2023-01-27T12:23:55.331Z,9.27
2023-01-27T12:26:39.080Z,12.53
2023-01-27T12:29:19.087Z,12.70
2023-01-27T12:31:53.579Z,11.40
2023-01-27T12:34:36.375Z,10.77
2023-01-27T12:37:13.097Z,9.23
2023-01-27T12:40:07.586Z,10.00
2023-01-27T12:42:44.300Z,9.83
2023-01-27T12:45:40.916Z,9.80
2023-01-27T12:48:15.098Z,9.80
2023-01-27T12:50:57.316Z,9.03
2023-01-27T12:53:32.300Z,8.03
2023-01-27T12:56:14.695Z,10.13
2023-01-27T12:58:58.314Z,9.13
2023-01-27T13:01:33.855Z,6.93
2023-01-27T13:04:20.721Z,10.40
2023-01-27T13:06:54.931Z,11.33
2023-01-27T13:09:35.963Z,9.60
2023-01-27T13:12:12.627Z,10.80
2023-01-27T13:14:44.274Z,11.93
2023-01-27T13:17:32.859Z,10.17
2023-01-27T13:20:13.017Z,9.47
2023-01-27T13:22:49.996Z,6.63
2023-01-27T13:25:27.025Z,8.40
2023-01-27T13:28:00.469Z,9.47
2023-01-27T13:30:41.434Z,9.37
2023-01-27T13:33:41.145Z,9.87
2023-01-27T13:36:25.865Z,5.83
2023-01-27T13:39:09.449Z,9.00
2023-01-27T13:41:52.509Z,7.60
2023-01-27T13:44:30.575Z,5.73
2023-01-27T13:47:08.850Z,5.67
2023-01-27T13:49:57.469Z,7.10
2023-01-27T13:52:29.366Z,7.90
2023-01-27T13:55:01.399Z,7.83
2023-01-27T13:57:54.111Z,10.67
2023-01-27T14:00:27.578Z,7.33
2023-01-27T14:03:22.159Z,8.00
2023-01-27T14:06:20.109Z,5.37
2023-01-27T14:09:18.327Z,5.90
2023-01-27T14:11:54.524Z,7.57
2023-01-27T14:14:56.133Z,6.97
2023-01-27T14:17:25.576Z,5.53
2023-01-27T14:20:20.457Z,6.10
2023-01-27T14:23:23.050Z,5.90
2023-01-27T14:26:19.653Z,6.10
2023-01-27T14:29:17.188Z,7.03
2023-01-27T14:31:54.320Z,5.30
2023-01-27T14:35:04.804Z,5.10
2023-01-27T14:37:48.452Z,5.87
2023-01-27T14:40:22.360Z,5.17
2023-01-27T14:43:24.876Z,5.13
2023-01-27T14:46:01.316Z,4.17
2023-01-27T14:49:00.749Z,5.70
2023-01-27T14:51:40.531Z,4.50
2023-01-27T14:54:20.510Z,7.27
2023-01-27T14:56:56.439Z,7.80
2023-01-27T14:59:45.148Z,7.00
2023-01-27T15:02:33.614Z,6.40
2023-01-27T15:05:22.937Z,7.73
2023-01-27T15:08:24.517Z,5.80
2023-01-27T15:10:58.019Z,7.37
2023-01-27T15:13:46.935Z,7.03
2023-01-27T15:16:30.931Z,9.83
2023-01-27T15:19:13.300Z,6.77
2023-01-27T15:22:09.664Z,6.43
2023-01-27T15:24:51.295Z,7.47
2023-01-27T15:27:26.020Z,5.87
2023-01-27T15:29:59.559Z,9.57
2023-01-27T15:32:38.034Z,6.80
2023-01-27T15:35:30.362Z,10.20
2023-01-27T15:38:11.034Z,8.77
2023-01-27T15:41:01.624Z,12.90
2023-01-27T15:43:33.180Z,9.57
2023-01-27T15:46:24.917Z,8.25
2023-01-27T15:48:58.042Z,8.33
2023-01-27T15:51:31.623Z,9.47
2023-01-27T15:54:04.009Z,8.88
2023-01-27T15:56:53.732Z,7.97
2023-01-27T15:59:27.303Z,8.00
2023-01-27T16:02:18.948Z,7.63
2023-01-27T16:04:59.147Z,14.03
2023-01-27T16:07:35.367Z,10.60
2023-01-27T16:10:09.112Z,12.80
2023-01-27T16:12:46.665Z,8.93
2023-01-27T16:15:20.303Z,10.37
2023-01-27T16:18:08.882Z,9.45
2023-01-27T16:20:54.308Z,9.03
2023-01-27T16:23:47.175Z,11.15
2023-01-27T16:26:30.959Z,10.60
2023-01-27T16:29:20.994Z,11.27
2023-01-27T16:31:53.840Z,9.77
2023-01-27T16:34:27.897Z,7.73
2023-01-27T16:37:14.715Z,12.17
2023-01-27T16:39:48.448Z,9.30
2023-01-27T16:42:23.866Z,11.68
2023-01-27T16:44:55.442Z,9.43
2023-01-27T16:47:30.070Z,11.97
2023-01-27T16:50:00.728Z,8.43
2023-01-27T16:52:41.582Z,12.60
2023-01-27T16:55:06.838Z,15.08
2023-01-27T16:57:40.499Z,11.73
2023-01-27T17:00:26.062Z,9.70
2023-01-27T17:02:59.335Z,7.33
2023-01-27T17:05:30.709Z,9.50
2023-01-27T17:08:12.704Z,8.53
2023-01-27T17:10:47.656Z,11.90
2023-01-27T17:13:39.081Z,10.70
2023-01-27T17:16:13.169Z,8.87
2023-01-27T17:18:52.297Z,11.37
2023-01-27T17:21:17.704Z,9.90
2023-01-27T17:23:50.016Z,8.67
2023-01-27T17:26:20.877Z,7.90
2023-01-27T17:28:51.408Z,10.00
2023-01-27T17:31:24.581Z,6.80
2023-01-27T17:34:00.802Z,7.43
2023-01-27T17:36:31.460Z,5.87
2023-01-27T17:39:02.329Z,8.63
2023-01-27T17:41:37.998Z,11.07
2023-01-27T17:44:16.391Z,6.23
2023-01-27T17:46:46.895Z,5.27
2023-01-27T17:49:19.514Z,9.10
2023-01-27T17:51:53.242Z,8.10
2023-01-27T17:54:37.448Z,9.93
2023-01-27T17:57:11.274Z,8.20
2023-01-27T17:59:45.073Z,10.77
2023-01-27T18:02:23.126Z,5.77
2023-01-27T18:04:55.383Z,9.03
2023-01-27T18:07:28.260Z,11.38
2023-01-27T18:09:59.098Z,15.63
2023-01-27T18:12:37.534Z,13.53
2023-01-27T18:15:39.844Z,11.27
2023-01-27T18:18:25.259Z,9.67
2023-01-27T18:21:10.684Z,7.57
2023-01-27T18:23:46.569Z,11.55
2023-01-27T18:26:35.405Z,12.17
2023-01-27T18:29:16.831Z,9.90
2023-01-27T18:31:57.654Z,7.15
2023-01-27T18:34:34.598Z,10.97
2023-01-27T18:37:08.497Z,5.83
2023-01-27T18:39:42.466Z,7.07
2023-01-27T18:42:16.038Z,5.93
2023-01-27T18:44:48.354Z,7.90
2023-01-27T18:47:21.835Z,7.20
2023-01-27T18:49:58.140Z,6.33
2023-01-27T18:52:30.753Z,8.57
2023-01-27T18:55:26.457Z,7.83
2023-01-27T18:57:59.313Z,6.83
2023-01-27T19:00:34.461Z,9.77
2023-01-27T19:03:07.754Z,8.23
2023-01-27T19:05:38.491Z,7.33
2023-01-27T19:08:12.004Z,5.07
2023-01-27T19:10:43.048Z,7.67
2023-01-27T19:13:15.519Z,7.93
2023-01-27T19:15:49.918Z,4.20
2023-01-27T19:18:27.615Z,6.00
2023-01-27T19:20:58.079Z,4.67
2023-01-27T19:23:29.793Z,5.60
2023-01-27T19:26:03.486Z,13.67
2023-01-27T19:28:38.905Z,7.63
2023-01-27T19:31:09.633Z,6.47
2023-01-27T19:33:42.188Z,8.43
2023-01-27T19:36:24.127Z,7.03
2023-01-27T19:38:57.678Z,4.63
2023-01-27T19:41:28.702Z,7.05
2023-01-27T19:43:59.244Z,6.50
2023-01-27T19:46:32.173Z,5.33
2023-01-27T19:49:04.371Z,5.87
2023-01-27T19:51:36.662Z,7.87
2023-01-27T19:54:08.886Z,6.58
2023-01-27T19:56:39.646Z,6.40
2023-01-27T19:59:11.067Z,6.43
2023-01-27T20:01:41.564Z,6.83
2023-01-27T20:04:12.074Z,4.83
2023-01-27T20:06:42.702Z,8.40
2023-01-27T20:09:15.235Z,6.13
2023-01-27T20:11:47.218Z,6.23
2023-01-27T20:14:19.977Z,6.60
2023-01-27T20:16:50.575Z,5.57
2023-01-27T20:19:21.013Z,7.83
2023-01-27T20:21:51.523Z,7.73
2023-01-27T20:24:22.439Z,4.80
2023-01-27T20:26:53.576Z,7.20
2023-01-27T20:29:23.849Z,7.93
2023-01-27T20:31:55.790Z,9.37
2023-01-27T20:34:26.367Z,4.40
2023-01-27T20:36:57.441Z,8.27
2023-01-27T20:39:27.893Z,6.20
2023-01-27T20:41:59.938Z,6.90
2023-01-27T20:44:30.358Z,7.30
2023-01-27T20:47:00.871Z,8.57
2023-01-27T20:49:34.940Z,9.53
2023-01-27T20:52:04.657Z,5.10
2023-01-27T20:54:35.413Z,5.67
2023-01-27T20:57:05.935Z,5.97
2023-01-27T20:59:36.535Z,6.27
2023-01-27T21:02:07.916Z,6.77
2023-01-27T21:04:40.120Z,7.10
2023-01-27T21:07:10.602Z,6.07
2023-01-27T21:09:41.044Z,7.83
2023-01-27T21:12:11.432Z,6.00
2023-01-27T21:14:42.077Z,7.53
2023-01-27T21:17:12.711Z,6.47
2023-01-27T21:19:43.247Z,5.10
2023-01-27T21:22:14.093Z,6.17
2023-01-27T21:24:46.164Z,4.90
2023-01-27T21:27:16.568Z,8.77
2023-01-27T21:29:47.524Z,7.67
2023-01-27T21:32:19.713Z,4.12
2023-01-27T21:34:50.133Z,6.30
2023-01-27T21:37:20.586Z,5.00
2023-01-27T21:39:53.089Z,7.23
2023-01-27T21:42:42.707Z,8.87
2023-01-27T21:45:15.804Z,8.33
2023-01-27T21:47:46.637Z,6.27
2023-01-27T21:50:18.103Z,7.33
2023-01-27T21:52:50.746Z,6.83
2023-01-27T21:55:24.121Z,8.17
2023-01-27T21:57:56.466Z,7.43
2023-01-27T22:00:29.092Z,9.60
2023-01-27T22:03:02.860Z,5.70
2023-01-27T22:05:34.663Z,9.70
2023-01-27T22:08:07.052Z,7.20
2023-01-27T22:10:38.098Z,7.35
2023-01-27T22:13:09.683Z,5.50
2023-01-27T22:15:41.223Z,6.57
2023-01-27T22:18:14.253Z,7.77
2023-01-27T22:20:46.177Z,6.57
2023-01-27T22:23:18.366Z,6.80
2023-01-27T22:25:53.645Z,8.97
2023-01-27T22:28:26.512Z,7.43
2023-01-27T22:31:00.417Z,9.60
2023-01-27T22:33:32.338Z,9.97
2023-01-27T22:36:05.088Z,6.27
2023-01-27T22:38:43.043Z,7.47
2023-01-27T22:41:13.571Z,7.33
2023-01-27T22:43:47.160Z,8.97
2023-01-27T22:46:18.521Z,7.33
2023-01-27T22:48:51.379Z,7.90
2023-01-27T22:51:22.110Z,7.60
2023-01-27T22:53:52.629Z,7.03
2023-01-27T22:56:23.181Z,5.90
2023-01-27T22:58:53.809Z,6.80
2023-01-27T23:01:24.285Z,5.60
2023-01-27T23:03:54.880Z,4.80
2023-01-27T23:06:25.374Z,9.93
2023-01-27T23:08:55.858Z,9.47
2023-01-27T23:11:26.658Z,4.90
2023-01-27T23:13:57.720Z,9.17
2023-01-27T23:16:28.059Z,6.23
2023-01-27T23:18:58.589Z,7.13
2023-01-27T23:21:31.492Z,7.23
2023-01-27T23:24:01.923Z,7.13
2023-01-27T23:26:32.806Z,7.70
2023-01-27T23:29:05.173Z,6.60
2023-01-27T23:31:35.563Z,12.40
2023-01-27T23:34:06.653Z,6.93
2023-01-27T23:36:37.246Z,8.67
2023-01-27T23:39:08.891Z,9.47
2023-01-27T23:41:40.851Z,6.60
2023-01-27T23:44:13.500Z,5.87
2023-01-27T23:46:43.878Z,5.73
2023-01-27T23:49:15.914Z,5.77
2023-01-27T23:51:46.429Z,5.83
2023-01-27T23:54:17.139Z,7.70
2023-01-27T23:56:47.639Z,6.83
2023-01-27T23:59:19.627Z,9.37
